Time;durP1;ratioP1;P1;durP2;ratioP2;P2;SDS_P1;SDS_P2;PMS_P1;PMS_P2;Temp;Humidity;BMP_temperature;BMP_pressure;BME280_temperature;BME280_humidity;BME280_pressure;Samples;Min_cycle;Max_cycle;Signal;HPM_P1;HPM_P2
2023/06/15 00:00:55;;;;;;;5.03;3.73;;;14.70;34.40;;;;;;5010801;28;20495;-52
2023/06/15 00:03:22;;;;;;;5.57;4.30;;;14.60;99.90;;;;;;5009855;28;20507;-51
2023/06/15 00:05:48;;;;;;;5.57;3.97;;;14.60;99.90;;;;;;5009830;28;20498;-52
2023/06/15 00:08:15;;;;;;;5.17;3.50;;;14.50;99.90;;;;;;5005157;28;20484;-51
2023/06/15 00:10:43;;;;;;;5.03;3.83;;;14.50;99.90;;;;;;5009352;28;20533;-51
2023/06/15 00:13:10;;;;;;;6.13;3.70;;;14.50;99.90;;;;;;5010304;28;20573;-52
2023/06/15 00:15:39;;;;;;;7.80;3.80;;;14.40;99.90;;;;;;5006699;28;20539;-52
2023/06/15 00:18:05;;;;;;;7.30;3.90;;;14.40;99.90;;;;;;5009043;28;20931;-52
2023/06/15 00:20:32;;;;;;;12.20;3.90;;;14.30;99.90;;;;;;5010997;28;20460;-52
2023/06/15 00:23:00;;;;;;;8.27;4.07;;;14.30;99.90;;;;;;5005945;28;20500;-52
2023/06/15 00:25:26;;;;;;;4.73;3.83;;;14.20;99.90;;;;;;5006823;28;20482;-52
2023/06/15 00:27:54;;;;;;;5.47;3.87;;;14.10;99.90;;;;;;5010443;28;20507;-52
2023/06/15 00:30:21;;;;;;;5.87;3.87;;;14.10;99.90;;;;;;5011373;28;20539;-52
2023/06/15 00:32:47;;;;;;;12.17;4.40;;;14.00;99.90;;;;;;5011054;28;20564;-52
2023/06/15 00:35:14;;;;;;;3.70;3.20;;;13.90;99.90;;;;;;5010279;28;20506;-51
2023/06/15 00:37:41;;;;;;;6.70;4.00;;;13.90;99.90;;;;;;5006093;28;20463;-52
2023/06/15 00:40:09;;;;;;;4.63;3.20;;;13.80;99.90;;;;;;5008956;28;20499;-52
2023/06/15 00:42:36;;;;;;;8.13;4.17;;;13.80;99.90;;;;;;5005377;28;20877;-52
2023/06/15 00:45:05;;;;;;;6.53;4.40;;;13.70;99.90;;;;;;5013283;28;20610;-52
2023/06/15 00:47:38;;;;;;;4.13;3.83;;;13.70;97.60;;;;;;5014260;28;20625;-52
2023/06/15 00:50:09;;;;;;;9.10;4.23;;;13.60;91.70;;;;;;5013902;28;20993;-51
2023/06/15 00:52:36;;;;;;;3.40;3.10;;;13.60;77.10;;;;;;5012083;28;20475;-52
2023/06/15 00:55:04;;;;;;;7.90;4.00;;;13.60;76.80;;;;;;5011122;28;20519;-51
2023/06/15 00:57:32;;;;;;;8.23;4.60;;;13.50;22.60;;;;;;5009036;28;20464;-51
2023/06/15 00:59:59;;;;;;;5.20;3.37;;;13.50;28.30;;;;;;5014336;28;20452;-52
2023/06/15 01:02:29;;;;;;;6.67;3.87;;;13.50;82.50;;;;;;5014829;28;20494;-51
2023/06/15 01:04:56;;;;;;;11.37;3.80;;;13.40;99.90;;;;;;5013301;28;20499;-51
2023/06/15 01:07:27;;;;;;;7.27;3.70;;;13.40;99.90;;;;;;5011009;28;20587;-51
2023/06/15 01:09:55;;;;;;;3.73;3.40;;;13.40;99.90;;;;;;5011211;28;20464;-51
2023/06/15 01:12:22;;;;;;;5.47;3.80;;;13.40;99.90;;;;;;5013527;28;20474;-51
2023/06/15 01:14:49;;;;;;;5.30;3.57;;;13.40;99.90;;;;;;5012434;28;21009;-51
2023/06/15 01:17:23;;;;;;;5.97;3.70;;;13.40;99.90;;;;;;5007053;28;20495;-51
2023/06/15 01:20:04;;;;;;;3.90;3.60;;;13.30;99.90;;;;;;5012125;28;20518;-51
2023/06/15 01:22:41;;;;;;;9.10;3.63;;;13.30;99.90;;;;;;5013140;28;20463;-51
2023/06/15 01:25:15;;;;;;;4.60;4.00;;;13.30;99.90;;;;;;5007640;28;20455;-51
2023/06/15 01:27:44;;;;;;;8.00;4.13;;;13.30;99.90;;;;;;5009187;28;20523;-51
2023/06/15 01:30:13;;;;;;;7.67;3.47;;;13.20;99.90;;;;;;5009341;28;20456;-52
2023/06/15 01:32:40;;;;;;;8.87;4.57;;;13.20;99.90;;;;;;5012737;28;20485;-51
2023/06/15 01:35:07;;;;;;;10.57;4.70;;;13.10;99.90;;;;;;5043354;22;20567;-49
2023/06/15 01:37:33;;;;;;;9.93;3.60;;;13.20;99.90;;;;;;5049734;28;20488;-50
2023/06/15 01:40:00;;;;;;;6.30;3.63;;;13.20;99.90;;;;;;5053291;28;20497;-50
2023/06/15 01:42:26;;;;;;;3.67;3.37;;;13.20;99.90;;;;;;5048744;28;20478;-50
2023/06/15 01:44:55;;;;;;;8.60;3.63;;;13.20;99.90;;;;;;5044519;28;20509;-50
2023/06/15 01:47:22;;;;;;;7.07;4.77;;;13.30;99.90;;;;;;5046160;28;20554;-50
2023/06/15 01:49:49;;;;;;;5.77;4.80;;;13.30;99.90;;;;;;5050909;28;20557;-50
2023/06/15 01:52:16;;;;;;;12.80;4.07;;;13.30;99.90;;;;;;5050050;28;20549;-50
2023/06/15 01:54:43;;;;;;;5.03;3.57;;;13.40;99.90;;;;;;5049613;28;20569;-50
2023/06/15 01:57:10;;;;;;;7.03;4.30;;;13.40;99.90;;;;;;5050721;28;20549;-49
2023/06/15 01:59:36;;;;;;;15.10;3.97;;;13.40;99.90;;;;;;5051762;28;20489;-51
2023/06/15 02:02:05;;;;;;;4.00;3.60;;;13.30;99.90;;;;;;5051324;28;20561;-50
2023/06/15 02:04:31;;;;;;;7.90;3.80;;;13.40;99.90;;;;;;5048584;28;20565;-50
2023/06/15 02:06:58;;;;;;;5.40;3.47;;;13.30;99.90;;;;;;5048337;28;20569;-50
2023/06/15 02:09:24;;;;;;;3.73;3.10;;;13.30;99.90;;;;;;5051471;28;20466;-50
2023/06/15 02:11:51;;;;;;;5.80;4.23;;;13.30;99.90;;;;;;5045387;28;20482;-50
2023/06/15 02:14:18;;;;;;;10.30;3.50;;;13.30;99.90;;;;;;5052185;28;20543;-50
2023/06/15 02:16:45;;;;;;;4.63;3.63;;;13.30;99.90;;;;;;5053238;28;20450;-51
2023/06/15 02:19:13;;;;;;;5.50;3.70;;;13.30;99.90;;;;;;5050989;28;20548;-50
2023/06/15 02:21:40;;;;;;;8.57;4.23;;;13.20;99.90;;;;;;5053481;28;20456;-49
2023/06/15 02:24:07;;;;;;;16.10;4.20;;;13.20;99.90;;;;;;5051176;28;20513;-50
2023/06/15 02:26:34;;;;;;;4.33;3.93;;;13.20;99.90;;;;;;5053076;28;20900;-50
2023/06/15 02:29:00;;;;;;;10.17;4.50;;;13.20;99.90;;;;;;5053030;28;20477;-51
2023/06/15 02:31:27;;;;;;;4.80;3.70;;;13.20;99.90;;;;;;5052620;28;20542;-51
2023/06/15 02:33:53;;;;;;;5.53;3.70;;;13.30;99.90;;;;;;5050613;28;20509;-50
2023/06/15 02:36:22;;;;;;;3.70;3.40;;;13.30;99.90;;;;;;5050256;28;20470;-50
2023/06/15 02:38:49;;;;;;;10.60;4.00;;;13.30;99.90;;;;;;5045488;28;20454;-50
2023/06/15 02:41:15;;;;;;;9.60;4.07;;;13.30;99.90;;;;;;5048992;28;20471;-50
2023/06/15 02:43:42;;;;;;;6.03;4.23;;;13.30;99.90;;;;;;5037201;28;20487;-50
2023/06/15 02:46:08;;;;;;;7.57;3.77;;;13.30;99.90;;;;;;5051267;28;20986;-50
2023/06/15 02:48:35;;;;;;;9.03;4.10;;;13.30;99.90;;;;;;5048350;28;22609;-49
2023/06/15 02:51:02;;;;;;;4.43;3.50;;;13.30;99.90;;;;;;5049642;28;20553;-50
2023/06/15 02:53:30;;;;;;;9.50;3.70;;;13.30;99.90;;;;;;5045308;28;20465;-49
2023/06/15 02:55:57;;;;;;;9.27;3.80;;;13.30;99.90;;;;;;5047846;28;20544;-50
2023/06/15 02:58:25;;;;;;;13.67;3.73;;;13.30;99.90;;;;;;5050471;28;20529;-51
2023/06/15 03:00:53;;;;;;;3.60;3.30;;;13.30;99.90;;;;;;5049380;28;20519;-50
2023/06/15 03:03:27;;;;;;;4.63;3.63;;;13.30;99.90;;;;;;5050708;28;20450;-50
2023/06/15 03:05:54;;;;;;;7.67;3.37;;;13.30;99.90;;;;;;5048797;28;20914;-51
2023/06/15 03:08:23;;;;;;;4.43;3.10;;;13.30;99.90;;;;;;5047559;28;20994;-50
2023/06/15 03:10:51;;;;;;;3.60;3.30;;;13.30;99.90;;;;;;5049045;28;20475;-50
2023/06/15 03:13:18;;;;;;;6.50;4.00;;;13.30;99.90;;;;;;5047132;28;20462;-50
2023/06/15 03:15:44;;;;;;;3.77;3.47;;;13.30;99.90;;;;;;5045663;28;20540;-51
2023/06/15 03:18:11;;;;;;;8.40;3.57;;;13.20;99.90;;;;;;5048384;28;20489;-49
2023/06/15 03:20:43;;;;;;;6.27;3.63;;;13.20;99.90;;;;;;5048004;28;20842;-50
2023/06/15 03:23:10;;;;;;;5.50;3.77;;;13.20;99.90;;;;;;5048281;28;20485;-50
2023/06/15 03:25:37;;;;;;;14.20;4.13;;;13.20;99.90;;;;;;5050069;28;20484;-50
2023/06/15 03:28:04;;;;;;;3.57;3.27;;;13.20;99.90;;;;;;5045692;28;20561;-49
2023/06/15 03:30:31;;;;;;;6.30;4.13;;;13.20;99.90;;;;;;5042465;28;20894;-50
2023/06/15 03:32:59;;;;;;;6.33;3.70;;;13.10;99.90;;;;;;5049439;28;20503;-51
2023/06/15 03:35:26;;;;;;;4.47;4.07;;;13.20;99.90;;;;;;5048004;28;20489;-50
2023/06/15 03:37:53;;;;;;;9.17;3.87;;;13.10;99.90;;;;;;5051348;28;20446;-49
2023/06/15 03:40:20;;;;;;;3.80;3.50;;;13.00;99.90;;;;;;5049674;28;20458;-50
2023/06/15 03:42:46;;;;;;;9.50;4.00;;;12.90;99.90;;;;;;5050507;28;21009;-51
2023/06/15 03:45:14;;;;;;;4.80;3.80;;;12.80;99.90;;;;;;5042473;28;20498;-50
2023/06/15 03:47:41;;;;;;;9.60;5.67;;;12.80;99.90;;;;;;5049619;28;20485;-50
2023/06/15 03:50:09;;;;;;;6.30;4.40;;;12.80;99.90;;;;;;5046070;28;20498;-50
2023/06/15 03:52:35;;;;;;;3.80;3.40;;;12.70;99.90;;;;;;5050680;28;20951;-50
2023/06/15 03:55:02;;;;;;;5.93;3.80;;;12.70;99.90;;;;;;5050831;28;20470;-51
2023/06/15 03:57:29;;;;;;;6.53;4.37;;;12.70;99.90;;;;;;5047466;28;20557;-50
2023/06/15 03:59:55;;;;;;;4.10;3.70;;;12.80;99.90;;;;;;5050586;28;20450;-50
2023/06/15 04:02:24;;;;;;;6.43;3.80;;;12.80;99.90;;;;;;5045894;28;20858;-50
2023/06/15 04:04:52;;;;;;;4.00;3.70;;;12.70;99.90;;;;;;5042790;28;20565;-50
2023/06/15 04:07:19;;;;;;;4.83;3.50;;;12.80;99.90;;;;;;5038512;28;20501;-49
2023/06/15 04:09:46;;;;;;;4.97;4.20;;;12.80;99.90;;;;;;5049211;28;20523;-49
2023/06/15 04:12:12;;;;;;;6.87;4.73;;;12.90;99.90;;;;;;5049184;28;20502;-51
2023/06/15 04:14:39;;;;;;;4.00;3.70;;;12.90;99.90;;;;;;5051290;28;20493;-50
2023/06/15 04:17:06;;;;;;;9.57;4.47;;;13.00;99.90;;;;;;5052963;28;20877;-50
2023/06/15 04:19:34;;;;;;;6.90;3.83;;;12.90;99.90;;;;;;5054402;28;20485;-50
2023/06/15 04:22:01;;;;;;;4.70;3.80;;;13.00;99.90;;;;;;5049217;28;20917;-49
2023/06/15 04:24:27;;;;;;;6.10;4.13;;;13.00;99.90;;;;;;5051245;28;20512;-50
2023/06/15 04:26:57;;;;;;;5.27;3.60;;;13.00;99.90;;;;;;5049124;28;20549;-50
2023/06/15 04:29:23;;;;;;;3.33;3.10;;;13.00;99.90;;;;;;5053119;28;20489;-50
2023/06/15 04:31:54;;;;;;;8.90;3.77;;;13.10;99.90;;;;;;5054331;28;20474;-51
2023/06/15 04:34:22;;;;;;;12.80;4.17;;;13.10;99.90;;;;;;5049241;28;20489;-49
2023/06/15 04:36:50;;;;;;;6.53;4.10;;;13.10;99.90;;;;;;5047540;28;20462;-50
2023/06/15 04:39:16;;;;;;;5.40;3.70;;;13.20;99.90;;;;;;5053002;28;20494;-49
2023/06/15 04:41:43;;;;;;;4.53;3.73;;;13.30;99.90;;;;;;5052835;28;20465;-50
2023/06/15 04:44:09;;;;;;;4.53;4.10;;;13.30;99.90;;;;;;5049029;28;20565;-49
2023/06/15 04:46:39;;;;;;;6.97;3.93;;;13.50;99.90;;;;;;5049649;28;20461;-49
2023/06/15 04:49:06;;;;;;;8.63;3.90;;;13.70;99.90;;;;;;5047497;28;20473;-49
2023/06/15 04:51:33;;;;;;;4.77;3.17;;;13.70;99.90;;;;;;5047175;28;20959;-50
2023/06/15 04:54:02;;;;;;;4.50;3.90;;;13.80;99.90;;;;;;5051098;28;20547;-50
2023/06/15 04:56:28;;;;;;;7.00;4.17;;;13.90;99.90;;;;;;5050189;28;20489;-49
2023/06/15 04:58:55;;;;;;;17.20;4.90;;;14.00;99.90;;;;;;5052902;28;21016;-50
2023/06/15 05:01:22;;;;;;;4.73;4.17;;;14.00;99.90;;;;;;5050864;28;21103;-50
2023/06/15 05:03:48;;;;;;;14.33;3.47;;;14.10;99.90;;;;;;5046362;28;20524;-50
2023/06/15 05:06:16;;;;;;;3.80;3.50;;;14.10;99.90;;;;;;5049114;28;20540;-50
2023/06/15 05:08:42;;;;;;;7.13;3.43;;;14.10;99.90;;;;;;5049239;28;20481;-50
2023/06/15 05:11:10;;;;;;;6.60;3.17;;;14.20;99.90;;;;;;5048130;28;20462;-50
2023/06/15 05:13:37;;;;;;;5.63;3.87;;;14.20;99.90;;;;;;5042336;28;20497;-50
2023/06/15 05:16:04;;;;;;;6.73;3.73;;;14.20;99.90;;;;;;5042637;28;20547;-50
2023/06/15 05:18:30;;;;;;;9.10;4.20;;;14.30;99.90;;;;;;5048403;28;20490;-50
2023/06/15 05:20:57;;;;;;;4.77;4.37;;;14.30;99.90;;;;;;5052727;28;20532;-50
2023/06/15 05:23:23;;;;;;;8.30;3.87;;;14.30;99.90;;;;;;5047163;28;20565;-50
2023/06/15 05:25:50;;;;;;;4.53;3.40;;;14.40;99.90;;;;;;5041710;28;20569;-50
2023/06/15 05:28:19;;;;;;;6.73;3.70;;;14.40;99.90;;;;;;5051217;28;20500;-49
2023/06/15 05:30:45;;;;;;;10.33;4.10;;;14.40;99.90;;;;;;5045770;28;20486;-50
2023/06/15 05:33:12;;;;;;;5.37;3.63;;;14.50;99.90;;;;;;5048481;28;20833;-49
2023/06/15 05:35:38;;;;;;;10.30;3.30;;;14.50;99.90;;;;;;5045962;28;20569;-50
2023/06/15 05:38:05;;;;;;;3.57;3.27;;;14.60;99.90;;;;;;5048121;28;20961;-50
2023/06/15 05:40:32;;;;;;;7.67;3.57;;;14.70;99.90;;;;;;5051005;28;20490;-49
2023/06/15 05:42:58;;;;;;;3.17;2.97;;;14.70;99.90;;;;;;5049972;28;20559;-50
2023/06/15 05:45:26;;;;;;;13.17;3.73;;;14.80;99.90;;;;;;5048153;28;20517;-49
2023/06/15 05:47:53;;;;;;;3.30;2.93;;;14.80;99.90;;;;;;5049819;28;20500;-49
2023/06/15 05:50:19;;;;;;;5.20;3.70;;;14.90;99.90;;;;;;5049861;28;20469;-50
2023/06/15 05:52:46;;;;;;;8.57;3.10;;;14.90;99.90;;;;;;5049239;28;20520;-49
2023/06/15 05:55:12;;;;;;;7.70;2.90;;;14.90;99.90;;;;;;5053383;28;20561;-50
2023/06/15 05:57:39;;;;;;;5.20;3.20;;;14.90;99.90;;;;;;5050756;28;20549;-51
2023/06/15 06:00:07;;;;;;;4.60;3.30;;;15.00;99.90;;;;;;5051943;28;20488;-49
2023/06/15 06:02:35;;;;;;;7.03;3.70;;;14.90;99.90;;;;;;5050651;28;21017;-50
2023/06/15 06:05:01;;;;;;;3.93;3.50;;;14.90;99.90;;;;;;5044136;28;20569;-50
2023/06/15 06:07:28;;;;;;;6.27;3.80;;;15.00;99.90;;;;;;5049935;28;20520;-51
2023/06/15 06:09:54;;;;;;;4.40;3.20;;;15.00;99.90;;;;;;5052898;28;20478;-51
2023/06/15 06:12:21;;;;;;;7.40;3.27;;;15.00;99.90;;;;;;5048215;28;20463;-51
2023/06/15 06:14:47;;;;;;;4.40;3.07;;;15.00;99.90;;;;;;5045470;28;20543;-51
2023/06/15 06:17:14;;;;;;;12.40;3.70;;;15.10;99.90;;;;;;5050650;28;20454;-50
2023/06/15 06:19:42;;;;;;;4.03;3.53;;;15.10;99.90;;;;;;5049162;28;20458;-51
2023/06/15 06:22:08;;;;;;;6.40;3.63;;;15.20;99.90;;;;;;5046990;28;20467;-51
2023/06/15 06:24:35;;;;;;;5.67;3.20;;;15.30;99.90;;;;;;5050319;28;20510;-50
2023/06/15 06:27:02;;;;;;;3.47;3.20;;;15.30;99.90;;;;;;5051618;28;20520;-50
2023/06/15 06:29:28;;;;;;;8.03;3.20;;;15.40;99.90;;;;;;5043782;28;21053;-50
2023/06/15 06:31:55;;;;;;;7.10;3.00;;;15.50;27.90;;;;;;5048063;28;20553;-50
2023/06/15 06:34:22;;;;;;;14.70;3.77;;;15.60;25.20;;;;;;5039867;28;20497;-51
2023/06/15 06:36:50;;;;;;;13.90;3.43;;;15.70;28.30;;;;;;5048113;28;20462;-51
2023/06/15 06:39:16;;;;;;;8.07;2.93;;;15.80;26.90;;;;;;5049179;28;20537;-51
2023/06/15 06:41:43;;;;;;;3.33;3.03;;;15.90;38.90;;;;;;5048071;28;20462;-49
2023/06/15 06:44:09;;;;;;;6.00;3.40;;;16.00;41.40;;;;;;5049809;28;21035;-50
2023/06/15 06:46:36;;;;;;;12.80;2.90;;;16.10;48.20;;;;;;5043107;28;20490;-50
2023/06/15 06:49:02;;;;;;;3.90;3.53;;;16.20;55.30;;;;;;5048483;28;20489;-50
2023/06/15 06:51:29;;;;;;;6.37;3.33;;;16.20;60.00;;;;;;5047472;28;20908;-50
2023/06/15 06:53:57;;;;;;;5.53;3.13;;;16.30;76.20;;;;;;5050493;28;20482;-50
2023/06/15 06:56:24;;;;;;;3.70;3.10;;;16.40;74.70;;;;;;5050237;28;20542;-50
2023/06/15 06:58:50;;;;;;;2.77;2.57;;;16.50;89.10;;;;;;5048217;28;20876;-50
2023/06/15 07:01:17;;;;;;;4.07;3.30;;;16.50;99.90;;;;;;5047764;28;20561;-51
2023/06/15 07:03:43;;;;;;;10.80;2.90;;;16.60;99.90;;;;;;5046720;28;20541;-50
2023/06/15 07:06:10;;;;;;;3.50;3.17;;;16.60;99.90;;;;;;5047467;28;20906;-50
2023/06/15 07:08:36;;;;;;;17.97;3.57;;;16.70;98.00;;;;;;5049274;28;20561;-50
2023/06/15 07:11:04;;;;;;;4.10;3.37;;;16.80;99.90;;;;;;5045434;28;20553;-50
2023/06/15 07:13:31;;;;;;;9.03;2.93;;;16.80;99.90;;;;;;5037868;28;20569;-53
2023/06/15 07:15:57;;;;;;;3.97;2.87;;;17.00;99.90;;;;;;5043479;28;20541;-50
2023/06/15 07:18:25;;;;;;;4.00;3.23;;;17.00;99.90;;;;;;5046103;28;20462;-49
2023/06/15 07:20:53;;;;;;;5.20;3.63;;;17.10;99.90;;;;;;5039402;28;20465;-49
2023/06/15 07:23:21;;;;;;;5.40;3.10;;;17.20;99.90;;;;;;5047171;28;20825;-50
2023/06/15 07:25:48;;;;;;;5.60;3.40;;;17.30;99.90;;;;;;5043903;28;20483;-50
2023/06/15 07:28:16;;;;;;;7.00;3.03;;;17.50;99.90;;;;;;5046652;28;20494;-50
2023/06/15 07:30:43;;;;;;;3.70;3.40;;;17.60;99.90;;;;;;5048580;28;20532;-49
2023/06/15 07:33:10;;;;;;;5.83;3.30;;;17.70;99.90;;;;;;5046480;28;20481;-50
2023/06/15 07:35:37;;;;;;;6.43;3.10;;;17.90;99.90;;;;;;5049674;28;20533;-51
2023/06/15 07:38:03;;;;;;;5.87;2.70;;;18.00;99.90;;;;;;5049225;28;20521;-49
2023/06/15 07:40:30;;;;;;;3.47;3.27;;;18.20;99.90;;;;;;5049615;28;20494;-50
2023/06/15 07:42:56;;;;;;;5.67;3.63;;;18.50;99.90;;;;;;5046578;22;20491;-53
2023/06/15 07:45:24;;;;;;;5.10;3.67;;;18.60;34.70;;;;;;5002966;28;20594;-51
2023/06/15 07:47:51;;;;;;;18.00;3.40;;;18.80;41.70;;;;;;5010444;28;20460;-53
2023/06/15 07:50:18;;;;;;;4.37;3.87;;;18.90;56.40;;;;;;5009430;28;20571;-51
2023/06/15 07:52:44;;;;;;;7.20;3.57;;;19.20;71.20;;;;;;5008544;28;20518;-51
2023/06/15 07:55:11;;;;;;;5.07;3.00;;;19.30;95.60;;;;;;5005274;28;20510;-51
2023/06/15 07:57:37;;;;;;;5.37;3.80;;;19.50;99.90;;;;;;5004837;28;20534;-52
2023/06/15 08:00:06;;;;;;;13.80;3.57;;;19.60;99.90;;;;;;4999768;28;20492;-52
2023/06/15 08:02:34;;;;;;;8.10;3.60;;;19.60;99.90;;;;;;5005042;28;22305;-52
2023/06/15 08:05:01;;;;;;;8.70;4.10;;;19.70;99.90;;;;;;5003071;28;20458;-51
2023/06/15 08:07:28;;;;;;;14.00;4.43;;;19.60;99.90;;;;;;5009079;28;20492;-51
2023/06/15 08:09:55;;;;;;;10.47;3.90;;;19.80;99.90;;;;;;5005371;28;21579;-52
2023/06/15 08:12:22;;;;;;;4.40;4.00;;;19.90;99.90;;;;;;5001107;28;20537;-51
2023/06/15 08:14:48;;;;;;;7.40;4.00;;;20.00;99.90;;;;;;5004303;28;20468;-53
2023/06/15 08:17:15;;;;;;;5.50;3.90;;;20.10;99.90;;;;;;5008953;28;20488;-53
2023/06/15 08:19:43;;;;;;;8.17;3.40;;;20.10;99.90;;;;;;5006975;28;20492;-51
2023/06/15 08:22:10;;;;;;;7.50;4.43;;;20.30;99.90;;;;;;5009307;28;20492;-52
2023/06/15 08:24:36;;;;;;;9.37;4.37;;;20.50;99.90;;;;;;5005996;28;20609;-53
2023/06/15 08:27:05;;;;;;;11.63;4.47;;;20.60;1.40;;;;;;5007626;28;20537;-52
2023/06/15 08:29:32;;;;;;;15.33;3.93;;;20.60;99.90;;;;;;5007545;28;20490;-52
2023/06/15 08:31:59;;;;;;;4.50;3.97;;;20.70;99.90;;;;;;5007903;28;20518;-52
2023/06/15 08:34:25;;;;;;;6.77;3.70;;;20.80;99.90;;;;;;5003784;28;20843;-52
2023/06/15 08:36:53;;;;;;;8.30;4.10;;;21.00;99.90;;;;;;5007985;28;20514;-52
2023/06/15 08:39:21;;;;;;;3.83;3.43;;;20.90;99.90;;;;;;5009794;28;20518;-52
2023/06/15 08:41:48;;;;;;;4.97;4.00;;;21.00;99.90;;;;;;5009355;28;20911;-52
2023/06/15 08:44:15;;;;;;;10.00;4.00;;;21.20;99.90;;;;;;5009959;28;20519;-51
2023/06/15 08:46:43;;;;;;;6.57;4.10;;;21.50;99.90;;;;;;5008633;28;20488;-52
2023/06/15 08:49:10;;;;;;;6.50;4.70;;;21.60;99.90;;;;;;5010040;28;20475;-51
2023/06/15 08:51:38;;;;;;;4.60;4.20;;;21.50;99.90;;;;;;5010811;28;20478;-53
2023/06/15 08:54:08;;;;;;;8.47;5.00;;;21.30;99.90;;;;;;5008539;28;20946;-52
2023/06/15 08:56:37;;;;;;;3.73;3.23;;;21.40;99.90;;;;;;5004872;28;20472;-51
2023/06/15 08:59:04;;;;;;;6.40;4.10;;;21.40;99.90;;;;;;5011001;28;20448;-52
2023/06/15 09:01:32;;;;;;;5.40;4.17;;;21.40;99.90;;;;;;5010320;28;20534;-51
2023/06/15 09:04:00;;;;;;;5.60;4.10;;;21.40;99.90;;;;;;5013121;28;20879;-53
2023/06/15 09:06:27;;;;;;;4.50;4.10;;;21.50;99.90;;;;;;5014510;28;20540;-52
2023/06/15 09:08:53;;;;;;;5.80;3.90;;;21.50;99.90;;;;;;5009343;28;20530;-51
2023/06/15 09:11:23;;;;;;;4.60;4.20;;;21.50;99.90;;;;;;5008865;28;20553;-52
2023/06/15 09:13:50;;;;;;;7.13;3.97;;;21.30;99.90;;;;;;5009240;28;20487;-52
2023/06/15 09:16:16;;;;;;;6.17;3.57;;;21.30;99.90;;;;;;5010333;28;20471;-53
2023/06/15 09:18:45;;;;;;;4.30;3.90;;;21.30;99.90;;;;;;5014430;28;20988;-52
2023/06/15 09:21:13;;;;;;;12.67;4.33;;;21.30;99.90;;;;;;5011037;28;20463;-52
2023/06/15 09:23:42;;;;;;;8.60;3.70;;;21.30;99.90;;;;;;5011018;28;20490;-51
2023/06/15 09:26:09;;;;;;;11.33;5.20;;;21.10;99.90;;;;;;5007949;28;20554;-52
2023/06/15 09:28:45;;;;;;;6.67;4.13;;;21.10;99.90;;;;;;5005539;28;20518;-52
2023/06/15 09:31:12;;;;;;;6.40;4.60;;;21.10;99.90;;;;;;5006423;28;20490;-51
2023/06/15 09:33:39;;;;;;;3.67;3.33;;;21.10;99.90;;;;;;5013222;28;20495;-51
2023/06/15 09:36:06;;;;;;;5.00;4.40;;;21.10;99.90;;;;;;5009408;28;20557;-52
2023/06/15 09:38:40;;;;;;;25.00;3.73;;;21.00;99.90;;;;;;5010419;28;20510;-51
2023/06/15 09:41:07;;;;;;;17.20;4.40;;;21.00;99.90;;;;;;5010849;28;20467;-51
2023/06/15 09:43:35;;;;;;;5.03;3.47;;;21.00;99.90;;;;;;5002451;28;20565;-51
2023/06/15 09:46:05;;;;;;;4.33;3.20;;;20.90;99.90;;;;;;5014266;28;20476;-52
2023/06/15 09:48:32;;;;;;;3.93;3.60;;;20.80;99.90;;;;;;5011874;28;20491;-52
2023/06/15 09:51:02;;;;;;;8.80;4.10;;;20.80;99.90;;;;;;5010558;28;21031;-52
2023/06/15 09:53:30;;;;;;;7.73;3.80;;;20.70;99.90;;;;;;5008252;28;20845;-52
2023/06/15 09:55:58;;;;;;;15.20;4.20;;;20.60;99.90;;;;;;5011525;28;21316;-52
2023/06/15 09:58:25;;;;;;;5.77;3.90;;;20.50;99.90;;;;;;5009580;28;21510;-52
2023/06/15 10:00:57;;;;;;;5.23;4.73;;;20.50;99.90;;;;;;5010116;28;20483;-52
2023/06/15 10:03:26;;;;;;;10.30;4.13;;;20.40;99.90;;;;;;5010616;28;21066;-52
2023/06/15 10:05:56;;;;;;;9.47;4.97;;;20.40;99.90;;;;;;5013107;28;20833;-51
2023/06/15 10:08:26;;;;;;;13.07;4.33;;;20.30;99.90;;;;;;5010804;28;20467;-51
2023/06/15 10:10:55;;;;;;;5.90;4.40;;;20.30;99.90;;;;;;5011430;28;20511;-52
2023/06/15 10:13:26;;;;;;;4.73;4.10;;;20.20;99.90;;;;;;5004365;28;20507;-54
2023/06/15 10:15:55;;;;;;;8.03;4.77;;;20.10;99.90;;;;;;5008751;28;20471;-51
2023/06/15 10:18:23;;;;;;;9.87;3.97;;;20.10;99.90;;;;;;5004892;28;20971;-53
2023/06/15 10:20:53;;;;;;;5.97;4.30;;;20.00;99.90;;;;;;5009653;28;20965;-51
2023/06/15 10:23:25;;;;;;;14.03;4.20;;;20.00;99.90;;;;;;5003870;28;20965;-50
2023/06/15 10:25:55;;;;;;;4.77;4.27;;;20.00;99.90;;;;;;5012375;28;20466;-51
2023/06/15 10:28:23;;;;;;;7.27;3.90;;;20.00;99.90;;;;;;5002093;28;21498;-52
2023/06/15 10:30:58;;;;;;;5.03;4.50;;;20.10;99.90;;;;;;5011339;28;20854;-51
2023/06/15 10:33:31;;;;;;;10.93;4.50;;;20.10;99.90;;;;;;5007888;28;20514;-53
2023/06/15 10:36:04;;;;;;;8.93;4.47;;;20.10;1.40;;;;;;5010812;28;20482;-51
2023/06/15 10:38:37;;;;;;;6.43;3.80;;;20.20;99.90;;;;;;5010709;28;20554;-53
2023/06/15 10:41:05;;;;;;;3.90;3.50;;;20.10;99.90;;;;;;4998617;28;20893;-52
2023/06/15 10:43:32;;;;;;;4.10;3.80;;;20.10;99.90;;;;;;5007055;28;20491;-51
2023/06/15 10:46:00;;;;;;;9.73;4.03;;;20.10;99.90;;;;;;5001760;28;20495;-52
2023/06/15 10:48:28;;;;;;;9.40;3.67;;;20.10;99.90;;;;;;5005141;28;20811;-52
2023/06/15 10:51:04;;;;;;;14.10;3.70;;;20.20;99.90;;;;;;5011283;28;20519;-50
2023/06/15 10:53:36;;;;;;;3.73;3.37;;;20.10;99.90;;;;;;5010732;28;20545;-51
2023/06/15 10:56:10;;;;;;;6.00;3.10;;;20.20;99.90;;;;;;5009157;28;20460;-51
2023/06/15 10:58:52;;;;;;;3.73;3.43;;;20.30;99.90;;;;;;5010365;28;20834;-51
2023/06/15 11:01:22;;;;;;;5.00;3.33;;;20.40;99.90;;;;;;5005864;28;20495;-51
2023/06/15 11:03:48;;;;;;;9.07;3.40;;;20.50;99.90;;;;;;5007816;28;20569;-52
2023/06/15 11:06:17;;;;;;;3.37;3.17;;;20.60;99.90;;;;;;5008839;28;20498;-52
2023/06/15 11:08:47;;;;;;;3.57;3.10;;;20.70;99.90;;;;;;5009703;28;20998;-52
2023/06/15 11:11:15;;;;;;;4.83;3.50;;;20.80;99.90;;;;;;5012417;28;20998;-52
2023/06/15 11:14:03;;;;;;;5.40;3.70;;;20.80;99.90;;;;;;5008820;28;21008;-51
2023/06/15 11:16:31;;;;;;;4.27;3.53;;;20.80;99.90;;;;;;5006504;28;20463;-53
2023/06/15 11:18:59;;;;;;;4.07;3.57;;;20.80;99.90;;;;;;5008331;28;20491;-54
2023/06/15 11:21:30;;;;;;;6.23;4.00;;;20.90;99.90;;;;;;5005538;28;21209;-55
2023/06/15 11:23:57;;;;;;;5.33;3.43;;;20.90;99.90;;;;;;5009851;28;21035;-54
2023/06/15 11:26:27;;;;;;;4.27;3.50;;;21.10;99.90;;;;;;5008309;28;20984;-54
2023/06/15 11:28:57;;;;;;;7.30;4.07;;;21.20;99.90;;;;;;5009009;28;20456;-54
2023/06/15 11:31:23;;;;;;;7.20;3.50;;;21.30;99.90;;;;;;5010099;28;20478;-53
2023/06/15 11:33:50;;;;;;;4.67;3.30;;;21.40;99.90;;;;;;5008052;28;20507;-56
2023/06/15 11:36:18;;;;;;;6.57;3.40;;;21.50;99.90;;;;;;5010815;28;20510;-56
2023/06/15 11:38:46;;;;;;;7.50;3.57;;;21.70;99.90;;;;;;5010678;28;20460;-55
2023/06/15 11:41:12;;;;;;;4.97;3.37;;;21.70;99.90;;;;;;5012295;28;20444;-56
2023/06/15 11:43:41;;;;;;;3.40;3.10;;;21.60;99.90;;;;;;5010005;28;20557;-54
2023/06/15 11:46:11;;;;;;;7.33;3.13;;;21.70;99.90;;;;;;5006322;28;20555;-54
2023/06/15 11:48:37;;;;;;;3.47;3.07;;;21.60;99.90;;;;;;5009333;28;20464;-55
2023/06/15 11:51:08;;;;;;;6.43;3.70;;;21.90;99.90;;;;;;5008880;28;20570;-55
2023/06/15 11:53:34;;;;;;;5.00;3.60;;;22.10;99.90;;;;;;5011082;28;20494;-56
2023/06/15 11:56:02;;;;;;;15.13;3.23;;;22.30;99.90;;;;;;5007903;28;20552;-55
2023/06/15 11:58:29;;;;;;;3.60;3.27;;;22.10;99.90;;;;;;5008891;28;20463;-55
2023/06/15 12:00:55;;;;;;;7.33;3.30;;;21.90;99.90;;;;;;5007120;28;20456;-54
2023/06/15 12:03:22;;;;;;;4.33;3.53;;;21.70;99.90;;;;;;5010910;28;20515;-55
2023/06/15 12:05:57;;;;;;;3.50;3.20;;;21.60;99.90;;;;;;5010787;28;20469;-54
2023/06/15 12:08:25;;;;;;;4.83;3.23;;;21.60;99.90;;;;;;5007907;28;20455;-54
2023/06/15 12:10:52;;;;;;;4.00;3.17;;;21.50;99.90;;;;;;5011953;28;20486;-57
2023/06/15 12:13:20;;;;;;;9.40;3.17;;;21.50;99.90;;;;;;5007862;28;20919;-54
2023/06/15 12:15:47;;;;;;;9.40;3.03;;;21.60;99.90;;;;;;5007147;28;20455;-53
2023/06/15 12:18:14;;;;;;;7.37;3.60;;;21.70;99.90;;;;;;5004660;28;20474;-56
2023/06/15 12:20:41;;;;;;;13.20;2.87;;;21.70;99.90;;;;;;5009218;28;20487;-55
2023/06/15 12:23:07;;;;;;;7.73;3.27;;;21.70;99.90;;;;;;5007171;28;20526;-56
2023/06/15 12:25:45;;;;;;;17.87;2.80;;;22.00;99.90;;;;;;5008558;28;20478;-54
2023/06/15 12:28:21;;;;;;;3.47;3.17;;;22.20;99.90;;;;;;5008981;28;20914;-56
2023/06/15 12:30:49;;;;;;;11.67;3.20;;;22.40;99.90;;;;;;5004459;28;20494;-55
2023/06/15 12:33:28;;;;;;;14.63;2.83;;;22.30;99.90;;;;;;5005821;28;20558;-55
2023/06/15 12:35:56;;;;;;;3.90;3.20;;;22.40;99.90;;;;;;5009106;28;20522;-55
2023/06/15 12:38:24;;;;;;;10.27;3.70;;;22.40;99.90;;;;;;5013723;28;20491;-56
2023/06/15 12:40:52;;;;;;;7.40;3.30;;;22.60;99.90;;;;;;5013260;28;20468;-56
2023/06/15 12:43:21;;;;;;;4.97;3.00;;;22.90;99.90;;;;;;5011651;28;20497;-56
2023/06/15 12:45:48;;;;;;;9.63;3.40;;;23.30;99.90;;;;;;5014165;28;20468;-56
2023/06/15 12:48:15;;;;;;;7.40;3.40;;;23.60;99.90;;;;;;5013321;28;20563;-55